Time;durP1;ratioP1;P1;durP2;ratioP2;P2;SDS_P1;SDS_P2;PMS_P1;PMS_P2;Temp;Humidity;BMP_temperature;BMP_pressure;BME280_temperature;BME280_humidity;BME280_pressure;Samples;Min_cycle;Max_cycle;Signal;HPM_P1;HPM_P2
2023/06/04 00:01:33;;;;;;;26.38;24.63;;;10.10;99.90;;;;;;4967106;28;20129;-74
2023/06/04 00:04:00;;;;;;;26.50;24.63;;;9.90;99.90;;;;;;4967824;28;20050;-74
2023/06/04 00:06:27;;;;;;;27.05;25.15;;;9.80;99.90;;;;;;4966560;28;20081;-74
2023/06/04 00:08:54;;;;;;;26.55;24.65;;;9.80;99.90;;;;;;4962841;28;20046;-74
2023/06/04 00:11:20;;;;;;;25.25;23.65;;;9.70;99.90;;;;;;4966806;28;20109;-73
2023/06/04 00:13:48;;;;;;;25.17;23.58;;;9.50;99.90;;;;;;4967855;28;20061;-74
2023/06/04 00:16:14;;;;;;;26.23;24.15;;;9.60;99.90;;;;;;4962491;28;20127;-75
2023/06/04 00:18:41;;;;;;;25.55;23.65;;;9.50;99.90;;;;;;4967796;28;20105;-75
2023/06/04 00:21:08;;;;;;;27.60;25.45;;;9.60;99.90;;;;;;4961810;28;20093;-73
2023/06/04 00:23:35;;;;;;;26.65;24.77;;;9.50;99.90;;;;;;4964584;28;20076;-75
2023/06/04 00:26:02;;;;;;;27.25;25.35;;;9.50;99.90;;;;;;4972671;28;20105;-75
2023/06/04 00:28:28;;;;;;;28.75;26.70;;;9.30;99.90;;;;;;4969975;28;20046;-75
2023/06/04 00:30:55;;;;;;;26.83;24.90;;;9.20;99.90;;;;;;4972712;28;20078;-76
2023/06/04 00:33:22;;;;;;;26.55;24.65;;;9.00;99.90;;;;;;4970540;28;20050;-75
2023/06/04 00:35:48;;;;;;;26.00;24.10;;;9.10;99.90;;;;;;4975675;28;20149;-75
2023/06/04 00:38:15;;;;;;;26.58;24.77;;;9.10;99.90;;;;;;4968714;28;20383;-75
2023/06/04 00:40:42;;;;;;;26.00;24.33;;;9.00;99.90;;;;;;4966616;28;20042;-75
2023/06/04 00:43:09;;;;;;;26.40;24.60;;;8.90;99.90;;;;;;4966097;28;20042;-75
2023/06/04 00:45:36;;;;;;;27.20;25.33;;;8.90;99.90;;;;;;4964964;28;20066;-73
2023/06/04 00:48:03;;;;;;;25.60;23.77;;;8.90;99.90;;;;;;4970258;28;20054;-75
2023/06/04 00:50:33;;;;;;;26.90;25.02;;;8.90;99.90;;;;;;4967302;28;20129;-73
2023/06/04 00:52:59;;;;;;;26.40;24.60;;;8.90;99.90;;;;;;4977465;28;20485;-73
2023/06/04 00:55:26;;;;;;;27.98;25.88;;;8.80;99.90;;;;;;4952276;28;20560;-73
2023/06/04 00:57:53;;;;;;;28.00;25.95;;;8.80;99.90;;;;;;4968948;28;20450;-74
2023/06/04 01:00:20;;;;;;;28.42;26.33;;;8.70;99.90;;;;;;4965714;28;20046;-76
2023/06/04 01:02:51;;;;;;;27.58;25.48;;;8.70;99.90;;;;;;4971066;28;20093;-75
2023/06/04 01:05:25;;;;;;;28.10;26.00;;;8.70;99.90;;;;;;4968685;28;20141;-75
2023/06/04 01:07:53;;;;;;;27.17;25.27;;;8.60;99.90;;;;;;4970627;28;20133;-75
2023/06/04 01:10:20;;;;;;;26.08;24.38;;;8.60;99.90;;;;;;4967610;28;20047;-75
2023/06/04 01:12:46;;;;;;;26.88;24.80;;;8.50;99.90;;;;;;4970879;28;20053;-75
2023/06/04 01:15:13;;;;;;;27.42;25.33;;;8.40;99.90;;;;;;4973690;28;20046;-76
2023/06/04 01:17:46;;;;;;;26.95;24.88;;;8.30;99.90;;;;;;4970834;28;20134;-75
2023/06/04 01:20:58;;;;;;;26.55;24.58;;;8.30;99.90;;;;;;4970026;28;20101;-76
2023/06/04 01:23:33;;;;;;;26.65;24.67;;;8.20;99.90;;;;;;4931082;28;20043;-76
2023/06/04 01:26:03;;;;;;;25.88;24.20;;;8.10;99.90;;;;;;4933812;28;20150;-75
2023/06/04 01:28:32;;;;;;;26.63;24.65;;;8.20;99.90;;;;;;4941790;28;20047;-75
2023/06/04 01:31:01;;;;;;;26.33;24.30;;;8.30;99.90;;;;;;4972073;28;20050;-76
2023/06/04 01:33:28;;;;;;;26.13;24.40;;;8.20;99.90;;;;;;4965727;28;20312;-75
2023/06/04 01:35:55;;;;;;;26.30;24.42;;;8.10;99.90;;;;;;4970992;28;20534;-75
2023/06/04 01:38:22;;;;;;;25.92;24.23;;;8.10;99.90;;;;;;4971654;28;20484;-76
2023/06/04 01:40:50;;;;;;;25.45;23.85;;;8.00;99.90;;;;;;4971300;28;20059;-74
2023/06/04 01:43:17;;;;;;;25.17;23.58;;;8.20;99.90;;;;;;4974419;28;20573;-74
2023/06/04 01:45:44;;;;;;;25.80;23.90;;;8.30;99.90;;;;;;4968032;28;20046;-74
2023/06/04 01:48:11;;;;;;;25.27;23.58;;;8.20;99.90;;;;;;4971771;28;20516;-75
2023/06/04 01:50:37;;;;;;;25.77;24.05;;;8.40;99.90;;;;;;4964463;28;20535;-75
2023/06/04 01:53:04;;;;;;;26.30;24.50;;;8.50;99.90;;;;;;4970651;28;20062;-75
2023/06/04 01:55:33;;;;;;;25.80;24.00;;;8.60;99.90;;;;;;4968806;28;20055;-74
2023/06/04 01:58:00;;;;;;;26.42;24.23;;;8.70;99.90;;;;;;4969216;28;20670;-74
2023/06/04 02:00:27;;;;;;;25.55;23.42;;;8.80;99.90;;;;;;4968887;28;20050;-74
2023/06/04 02:02:55;;;;;;;25.63;23.73;;;8.80;99.90;;;;;;4966437;28;20441;-73
2023/06/04 02:05:22;;;;;;;25.58;23.67;;;8.70;99.90;;;;;;4965021;28;20038;-74
2023/06/04 02:07:51;;;;;;;25.70;23.80;;;8.70;99.90;;;;;;4971757;28;20043;-74
2023/06/04 02:10:19;;;;;;;26.42;24.50;;;8.40;99.90;;;;;;4986077;28;20030;-73
2023/06/04 02:13:02;;;;;;;26.30;24.17;;;8.40;99.90;;;;;;4970199;28;20498;-74
2023/06/04 02:15:31;;;;;;;26.15;24.25;;;8.50;99.90;;;;;;4981669;28;20128;-74
2023/06/04 02:18:20;;;;;;;25.90;24.00;;;8.50;99.90;;;;;;4968752;28;20058;-74
2023/06/04 02:20:48;;;;;;;25.98;24.17;;;8.50;99.90;;;;;;4964008;28;20512;-73
2023/06/04 02:23:17;;;;;;;26.52;24.52;;;8.30;99.90;;;;;;4968083;28;20456;-74
2023/06/04 02:25:45;;;;;;;26.35;24.45;;;8.20;99.90;;;;;;4968659;28;20038;-73
2023/06/04 02:28:12;;;;;;;26.83;24.92;;;8.10;99.90;;;;;;4968673;28;20043;-73
2023/06/04 02:30:39;;;;;;;26.65;24.63;;;7.90;99.90;;;;;;4967461;28;20046;-76
2023/06/04 02:33:06;;;;;;;27.58;25.20;;;7.80;99.90;;;;;;4965504;28;20090;-76
2023/06/04 02:35:33;;;;;;;27.83;25.27;;;7.70;99.90;;;;;;4963401;28;20449;-74
2023/06/04 02:38:00;;;;;;;27.10;25.02;;;7.60;99.90;;;;;;4975436;28;20042;-74
2023/06/04 02:40:27;;;;;;;26.52;24.52;;;7.40;99.90;;;;;;4963894;28;20450;-75
2023/06/04 02:42:55;;;;;;;26.17;24.20;;;7.40;99.90;;;;;;4962969;28;20053;-74
2023/06/04 02:45:23;;;;;;;26.70;24.63;;;7.40;99.90;;;;;;4986198;28;20081;-74
2023/06/04 02:47:49;;;;;;;26.55;24.45;;;7.30;99.90;;;;;;4970853;28;20535;-74
2023/06/04 02:50:16;;;;;;;26.15;24.25;;;7.30;99.90;;;;;;4976145;28;20034;-74
2023/06/04 02:52:43;;;;;;;26.30;24.33;;;7.30;99.90;;;;;;4970480;28;20137;-74
2023/06/04 02:55:12;;;;;;;25.38;23.38;;;7.20;99.90;;;;;;4974317;28;20050;-73
2023/06/04 02:57:42;;;;;;;25.67;23.42;;;7.20;99.90;;;;;;4965863;28;20387;-74
2023/06/04 03:00:13;;;;;;;25.67;23.85;;;7.10;99.90;;;;;;4959359;28;20105;-75
2023/06/04 03:02:46;;;;;;;26.00;23.92;;;7.00;99.90;;;;;;4969562;28;20050;-75
2023/06/04 03:05:17;;;;;;;26.52;24.42;;;6.90;99.90;;;;;;4967802;28;20394;-74
2023/06/04 03:07:45;;;;;;;25.30;23.35;;;6.80;99.90;;;;;;4967879;28;20034;-75
2023/06/04 03:10:13;;;;;;;26.20;23.98;;;6.90;99.90;;;;;;4962859;28;20061;-73
2023/06/04 03:12:40;;;;;;;24.95;23.15;;;6.80;99.90;;;;;;4963993;28;20043;-75
2023/06/04 03:15:07;;;;;;;25.05;23.25;;;6.90;99.90;;;;;;4969986;28;20069;-75
2023/06/04 03:17:34;;;;;;;24.33;22.55;;;7.10;99.90;;;;;;4964932;28;20069;-74
2023/06/04 03:20:01;;;;;;;24.70;22.80;;;7.10;99.90;;;;;;4964738;28;20057;-75
2023/06/04 03:22:29;;;;;;;24.30;22.60;;;6.90;99.90;;;;;;4978643;28;20576;-75
2023/06/04 03:24:56;;;;;;;29.58;27.77;;;6.90;99.90;;;;;;4973224;28;20422;-75
2023/06/04 03:27:23;;;;;;;30.40;28.38;;;6.90;99.90;;;;;;4964620;28;20453;-74
2023/06/04 03:29:50;;;;;;;30.02;27.90;;;6.90;99.90;;;;;;4967688;28;20055;-75
2023/06/04 03:32:17;;;;;;;28.60;26.88;;;6.80;99.90;;;;;;4969361;28;20517;-74
2023/06/04 03:34:46;;;;;;;27.98;26.27;;;6.80;99.90;;;;;;4967925;28;20132;-75
2023/06/04 03:37:13;;;;;;;28.33;26.55;;;6.70;99.90;;;;;;4968903;28;20093;-75
2023/06/04 03:39:41;;;;;;;27.95;26.17;;;6.60;99.90;;;;;;4954694;28;20320;-75
2023/06/04 03:42:10;;;;;;;27.70;26.00;;;6.60;99.90;;;;;;4971961;28;20049;-75
2023/06/04 03:44:37;;;;;;;28.23;26.30;;;6.60;99.90;;;;;;4967832;28;20378;-75
2023/06/04 03:47:05;;;;;;;28.40;26.48;;;6.60;99.90;;;;;;4971312;28;20093;-75
2023/06/04 03:49:32;;;;;;;27.58;25.77;;;6.60;99.90;;;;;;4972435;28;20054;-74
2023/06/04 03:51:59;;;;;;;27.73;25.77;;;6.50;99.90;;;;;;4969140;28;20062;-74
2023/06/04 03:54:27;;;;;;;27.25;25.58;;;6.40;99.90;;;;;;4985066;28;20061;-75
2023/06/04 03:56:53;;;;;;;26.40;24.90;;;6.70;99.90;;;;;;4983302;28;20042;-74
2023/06/04 03:59:20;;;;;;;25.85;24.35;;;6.60;99.90;;;;;;4980185;28;20043;-74
2023/06/04 04:01:47;;;;;;;24.80;23.20;;;6.60;99.90;;;;;;4964442;28;20051;-75
2023/06/04 04:04:14;;;;;;;25.48;23.98;;;6.60;99.90;;;;;;4973734;28;20053;-73
2023/06/04 04:06:41;;;;;;;25.40;23.77;;;6.50;99.90;;;;;;4969640;28;20046;-75
2023/06/04 04:09:09;;;;;;;25.05;23.45;;;6.60;99.90;;;;;;4982071;28;20043;-73
2023/06/04 04:11:36;;;;;;;25.23;23.63;;;6.80;99.90;;;;;;4967698;28;20427;-74
2023/06/04 04:14:04;;;;;;;26.23;24.15;;;6.80;99.90;;;;;;4970925;28;20110;-74
2023/06/04 04:16:32;;;;;;;25.00;23.38;;;6.80;99.90;;;;;;4985358;28;20077;-73
2023/06/04 04:19:01;;;;;;;25.15;23.35;;;6.80;99.90;;;;;;4965911;28;20053;-73
2023/06/04 04:21:28;;;;;;;26.05;24.00;;;6.80;99.90;;;;;;4965754;28;20039;-73
2023/06/04 04:23:55;;;;;;;24.33;22.77;;;6.80;99.90;;;;;;4970842;28;20479;-74
2023/06/04 04:26:27;;;;;;;25.25;23.50;;;6.80;99.90;;;;;;4965144;28;20046;-73
2023/06/04 04:28:57;;;;;;;25.20;23.35;;;6.80;99.90;;;;;;4969187;28;20497;-73
2023/06/04 04:31:27;;;;;;;24.42;22.92;;;6.90;99.90;;;;;;4984367;28;20247;-73
2023/06/04 04:33:55;;;;;;;25.83;24.23;;;7.40;99.90;;;;;;4963675;28;20061;-73
2023/06/04 04:36:22;;;;;;;26.95;25.05;;;7.90;99.90;;;;;;4984196;28;20038;-73
2023/06/04 04:38:54;;;;;;;26.73;24.92;;;8.50;99.90;;;;;;4968928;28;20047;-74
2023/06/04 04:41:24;;;;;;;27.73;25.50;;;8.80;99.90;;;;;;4966365;28;20042;-73
2023/06/04 04:43:53;;;;;;;27.65;25.83;;;9.30;99.90;;;;;;4971082;28;20050;-73
2023/06/04 04:46:25;;;;;;;26.73;24.98;;;9.50;99.90;;;;;;4971968;28;20045;-74
2023/06/04 04:48:52;;;;;;;27.13;25.10;;;9.80;99.90;;;;;;4969121;28;20233;-73
2023/06/04 04:51:19;;;;;;;26.75;25.15;;;10.00;99.90;;;;;;4967424;28;20466;-73
2023/06/04 04:53:45;;;;;;;27.92;26.33;;;10.40;99.90;;;;;;4964496;28;20061;-74
2023/06/04 04:56:13;;;;;;;28.05;26.15;;;10.70;99.90;;;;;;4964856;28;20637;-73
2023/06/04 04:58:43;;;;;;;27.20;25.30;;;10.90;99.90;;;;;;4967960;28;20065;-73
2023/06/04 05:01:11;;;;;;;26.15;24.63;;;11.30;99.90;;;;;;4971778;28;20144;-73
2023/06/04 05:03:39;;;;;;;26.98;25.38;;;11.50;99.90;;;;;;4964286;28;20097;-73
2023/06/04 05:06:07;;;;;;;28.42;26.63;;;11.60;99.90;;;;;;4968526;28;20508;-73
2023/06/04 05:08:34;;;;;;;28.45;26.48;;;12.00;99.90;;;;;;4988389;28;20041;-75
2023/06/04 05:11:02;;;;;;;27.92;26.10;;;12.30;99.90;;;;;;4975309;28;20475;-74
2023/06/04 05:13:29;;;;;;;28.27;26.58;;;12.50;99.90;;;;;;4989276;28;20507;-73
2023/06/04 05:16:06;;;;;;;28.23;26.42;;;12.90;99.90;;;;;;4971653;28;20407;-74
2023/06/04 05:18:40;;;;;;;28.33;26.63;;;13.20;99.90;;;;;;4970126;28;20565;-74
2023/06/04 05:21:11;;;;;;;28.63;26.83;;;13.70;99.90;;;;;;4991209;28;20299;-74
2023/06/04 05:23:42;;;;;;;28.50;26.80;;;14.00;99.90;;;;;;4957864;28;20483;-74
2023/06/04 05:26:09;;;;;;;28.30;26.38;;;14.20;99.90;;;;;;4969223;28;20034;-74
2023/06/04 05:28:36;;;;;;;28.92;26.98;;;14.50;99.90;;;;;;4969789;28;20113;-74
2023/06/04 05:31:04;;;;;;;28.55;26.83;;;14.70;99.90;;;;;;4969632;28;20108;-74
2023/06/04 05:33:33;;;;;;;28.80;26.90;;;14.90;99.90;;;;;;4968370;28;20050;-74
2023/06/04 05:36:05;;;;;;;28.10;26.50;;;15.20;99.90;;;;;;4967148;28;20042;-73
2023/06/04 05:38:38;;;;;;;27.90;26.08;;;15.30;99.90;;;;;;4984856;28;20058;-74
2023/06/04 05:41:08;;;;;;;28.00;26.30;;;15.40;99.90;;;;;;4972316;28;20049;-75
2023/06/04 05:43:37;;;;;;;28.05;26.40;;;15.70;99.90;;;;;;4986539;28;20822;-75
2023/06/04 05:46:07;;;;;;;28.13;26.33;;;15.80;99.90;;;;;;4986206;28;20073;-75
2023/06/04 05:48:34;;;;;;;28.52;26.63;;;16.00;99.90;;;;;;4969558;28;20716;-75
2023/06/04 05:51:01;;;;;;;29.23;27.48;;;16.40;99.90;;;;;;4969918;28;20133;-75
2023/06/04 05:53:28;;;;;;;29.75;27.95;;;16.60;99.90;;;;;;4972698;28;20043;-75
2023/06/04 05:55:55;;;;;;;30.50;28.50;;;16.90;99.90;;;;;;4965871;28;20105;-75
2023/06/04 05:58:21;;;;;;;34.03;32.13;;;17.30;99.90;;;;;;4970018;28;20090;-75
2023/06/04 06:00:50;;;;;;;34.60;32.60;;;17.50;99.90;;;;;;4972520;28;20141;-75
2023/06/04 06:03:17;;;;;;;34.58;32.58;;;17.70;99.90;;;;;;4983519;28;20137;-75
2023/06/04 06:05:47;;;;;;;36.70;34.42;;;17.70;99.90;;;;;;4972051;28;20265;-75
2023/06/04 06:08:14;;;;;;;36.75;34.60;;;17.80;99.90;;;;;;4970016;28;20046;-73
2023/06/04 06:10:42;;;;;;;38.78;36.38;;;18.00;99.90;;;;;;4966241;28;20046;-74
2023/06/04 06:13:09;;;;;;;39.92;37.50;;;18.20;99.90;;;;;;4969645;28;20046;-73
2023/06/04 06:15:35;;;;;;;40.60;38.30;;;18.30;99.90;;;;;;4984362;28;20501;-75
2023/06/04 06:18:02;;;;;;;41.35;38.78;;;17.10;99.90;;;;;;4960749;28;20153;-76
2023/06/04 06:20:29;;;;;;;40.78;38.38;;;16.70;99.90;;;;;;4963207;28;20133;-74
2023/06/04 06:22:56;;;;;;;40.42;38.03;;;16.60;99.90;;;;;;4968943;28;20448;-74
2023/06/04 06:25:24;;;;;;;41.22;38.90;;;16.80;99.90;;;;;;4964123;28;20046;-73
2023/06/04 06:27:57;;;;;;;42.67;40.17;;;16.80;99.90;;;;;;4981386;28;20062;-73
2023/06/04 06:30:24;;;;;;;42.28;39.53;;;16.50;99.90;;;;;;4970855;28;20070;-74
2023/06/04 06:32:53;;;;;;;40.85;38.47;;;16.70;99.90;;;;;;4961385;28;20065;-73
2023/06/04 06:35:23;;;;;;;44.53;41.92;;;17.20;99.90;;;;;;4969391;28;20044;-74
2023/06/04 06:37:49;;;;;;;45.47;42.72;;;17.80;99.90;;;;;;4968217;28;20116;-75
2023/06/04 06:40:16;;;;;;;46.17;43.72;;;17.90;99.90;;;;;;4979419;28;20055;-73
2023/06/04 06:42:48;;;;;;;45.42;43.03;;;17.70;99.90;;;;;;4971027;28;20046;-75
2023/06/04 06:45:15;;;;;;;44.72;41.97;;;18.20;99.90;;;;;;4967001;28;20046;-72
2023/06/04 06:47:42;;;;;;;46.22;43.50;;;18.70;99.90;;;;;;4970303;28;20643;-75
2023/06/04 06:50:10;;;;;;;46.25;43.75;;;17.90;99.90;;;;;;4968737;28;20142;-76
2023/06/04 06:52:37;;;;;;;48.08;45.58;;;17.90;99.90;;;;;;4969626;28;20070;-74
2023/06/04 06:55:05;;;;;;;47.10;44.50;;;17.50;99.90;;;;;;4957369;28;20054;-76
2023/06/04 06:57:33;;;;;;;47.78;44.97;;;17.50;99.90;;;;;;4965037;28;20071;-74
2023/06/04 07:00:00;;;;;;;48.70;45.58;;;17.70;99.90;;;;;;4963994;28;20109;-75
2023/06/04 07:02:28;;;;;;;47.92;45.40;;;18.10;99.90;;;;;;4963907;28;20039;-74
2023/06/04 07:04:55;;;;;;;47.20;44.58;;;18.10;99.90;;;;;;4965135;28;20586;-75
2023/06/04 07:07:22;;;;;;;49.35;46.63;;;18.30;99.90;;;;;;4966327;28;20180;-75
2023/06/04 07:09:49;;;;;;;45.80;43.15;;;18.40;99.90;;;;;;4960531;28;20070;-74
2023/06/04 07:12:16;;;;;;;47.50;44.80;;;18.20;99.90;;;;;;4969691;28;20684;-75
2023/06/04 07:14:43;;;;;;;48.33;45.67;;;17.90;99.90;;;;;;4967690;28;20105;-74
2023/06/04 07:17:10;;;;;;;48.38;45.97;;;17.80;99.90;;;;;;4965850;28;20054;-75
2023/06/04 07:19:36;;;;;;;47.80;45.20;;;18.10;99.90;;;;;;4968980;28;20046;-75
2023/06/04 07:22:03;;;;;;;49.28;46.28;;;17.80;99.90;;;;;;4968300;28;20046;-74
2023/06/04 07:24:30;;;;;;;49.97;47.35;;;18.20;99.90;;;;;;4968209;28;20093;-75
2023/06/04 07:26:57;;;;;;;49.50;47.00;;;19.00;99.90;;;;;;4967332;28;20342;-74
2023/06/04 07:29:23;;;;;;;51.72;48.88;;;19.40;99.90;;;;;;4967708;28;20042;-75
2023/06/04 07:31:50;;;;;;;50.78;48.17;;;19.80;99.90;;;;;;4960623;28;20082;-74
2023/06/04 07:34:17;;;;;;;51.90;49.08;;;19.60;99.90;;;;;;4964655;28;20050;-74
2023/06/04 07:36:44;;;;;;;52.67;49.97;;;18.70;99.90;;;;;;4964591;28;20047;-74
2023/06/04 07:39:10;;;;;;;52.15;49.42;;;18.50;99.90;;;;;;4964708;28;20043;-74
2023/06/04 07:41:37;;;;;;;53.88;50.90;;;18.50;99.90;;;;;;4965339;28;20496;-75
2023/06/04 07:44:04;;;;;;;53.15;50.45;;;18.90;99.90;;;;;;4964439;28;22407;-74
2023/06/04 07:46:30;;;;;;;53.78;50.85;;;19.30;99.90;;;;;;4979271;28;20049;-74
2023/06/04 07:48:57;;;;;;;53.35;50.55;;;19.20;99.90;;;;;;4967390;28;20042;-74
2023/06/04 07:51:25;;;;;;;54.88;52.10;;;19.00;99.90;;;;;;4969739;28;20129;-74
2023/06/04 07:53:52;;;;;;;57.42;54.58;;;19.60;99.90;;;;;;4973244;28;20757;-74
2023/06/04 07:56:18;;;;;;;55.70;52.80;;;19.50;99.90;;;;;;4964405;28;20129;-74
2023/06/04 07:58:46;;;;;;;53.70;51.10;;;19.50;99.90;;;;;;4964185;28;20051;-73
2023/06/04 08:01:13;;;;;;;50.97;48.38;;;19.50;99.90;;;;;;4971269;28;20039;-74
2023/06/04 08:03:41;;;;;;;53.72;50.92;;;19.20;99.90;;;;;;4967721;28;20042;-75
2023/06/04 08:06:09;;;;;;;53.70;50.90;;;19.50;99.90;;;;;;4970866;28;20511;-74
2023/06/04 08:08:36;;;;;;;53.60;50.90;;;19.60;99.90;;;;;;4971216;28;20047;-73
2023/06/04 08:11:03;;;;;;;53.53;50.72;;;19.00;99.90;;;;;;4969290;28;20115;-73
2023/06/04 08:13:30;;;;;;;54.47;51.67;;;18.90;99.90;;;;;;4967016;28;20419;-75
2023/06/04 08:15:56;;;;;;;54.60;51.90;;;18.90;99.90;;;;;;4958010;28;20047;-72
2023/06/04 08:18:23;;;;;;;56.00;53.00;;;18.90;99.90;;;;;;4968036;28;20521;-73
2023/06/04 08:20:50;;;;;;;53.03;50.35;;;19.30;99.90;;;;;;4950241;28;20649;-75
2023/06/04 08:23:17;;;;;;;53.45;50.85;;;19.10;99.90;;;;;;4963989;28;20046;-73
2023/06/04 08:25:44;;;;;;;52.60;49.97;;;19.30;99.90;;;;;;4977270;28;20105;-72
2023/06/04 08:28:13;;;;;;;56.00;52.85;;;20.00;99.90;;;;;;4968450;28;20559;-75
2023/06/04 08:30:40;;;;;;;53.72;50.72;;;20.50;98.60;;;;;;4958429;28;20046;-75
2023/06/04 08:33:07;;;;;;;53.75;50.85;;;20.80;99.60;;;;;;4964675;28;20461;-74
2023/06/04 08:35:37;;;;;;;54.85;51.95;;;20.80;98.70;;;;;;4965908;28;20038;-74
2023/06/04 08:38:04;;;;;;;53.05;50.35;;;20.20;98.00;;;;;;4969942;28;20630;-74
2023/06/04 08:40:31;;;;;;;57.13;54.00;;;19.70;98.70;;;;;;4963563;28;20085;-74
2023/06/04 08:42:59;;;;;;;56.28;53.47;;;19.20;98.10;;;;;;4969380;28;20642;-74
2023/06/04 08:45:26;;;;;;;55.10;52.30;;;19.70;99.40;;;;;;4968135;28;20042;-74
2023/06/04 08:47:54;;;;;;;55.67;52.75;;;19.50;99.90;;;;;;4966216;28;20038;-74
2023/06/04 08:50:23;;;;;;;56.42;53.55;;;19.70;98.50;;;;;;4970147;28;20168;-74
2023/06/04 08:52:55;;;;;;;54.92;52.13;;;19.10;96.80;;;;;;4965154;28;20497;-75
2023/06/04 08:55:22;;;;;;;53.50;50.70;;;19.60;99.10;;;;;;4963210;28;20042;-74
2023/06/04 08:57:52;;;;;;;55.05;52.03;;;19.70;98.10;;;;;;4967511;28;20113;-74
2023/06/04 09:00:19;;;;;;;55.67;52.88;;;19.90;96.70;;;;;;4962747;28;20047;-74
2023/06/04 09:02:47;;;;;;;54.33;51.42;;;20.10;97.10;;;;;;4975379;28;20066;-74
2023/06/04 09:05:20;;;;;;;53.45;50.58;;;20.50;97.20;;;;;;4972979;28;20047;-74
2023/06/04 09:07:50;;;;;;;56.58;53.47;;;20.60;96.90;;;;;;4962391;28;20102;-74
2023/06/04 09:10:19;;;;;;;51.15;48.55;;;20.30;96.70;;;;;;4970878;28;20043;-74
2023/06/04 09:12:48;;;;;;;50.53;47.83;;;20.10;97.40;;;;;;4970418;28;20040;-74
2023/06/04 09:15:15;;;;;;;49.47;46.67;;;20.60;96.20;;;;;;4967747;28;20129;-74
2023/06/04 09:17:42;;;;;;;52.17;49.58;;;20.80;97.40;;;;;;4968951;28;20395;-74
2023/06/04 09:20:19;;;;;;;55.97;52.97;;;21.10;96.90;;;;;;4968723;28;20500;-74
2023/06/04 09:22:46;;;;;;;55.00;51.83;;;20.70;97.50;;;;;;4969686;28;20073;-75
2023/06/04 09:25:25;;;;;;;53.20;50.38;;;20.70;96.80;;;;;;4983683;28;20532;-74
2023/06/04 09:27:53;;;;;;;52.92;50.22;;;20.80;97.10;;;;;;4972991;28;20482;-74
2023/06/04 09:30:19;;;;;;;54.22;51.53;;;21.30;95.80;;;;;;4968212;28;20398;-74
2023/06/04 09:32:46;;;;;;;56.70;53.65;;;21.20;96.40;;;;;;4970528;28;20046;-74
2023/06/04 09:35:15;;;;;;;56.28;53.13;;;21.10;97.20;;;;;;4966086;28;20043;-74
2023/06/04 09:37:51;;;;;;;55.20;52.08;;;21.40;95.30;;;;;;4962777;28;20133;-74
2023/06/04 09:40:18;;;;;;;57.60;54.55;;;21.50;95.70;;;;;;4964800;28;20493;-74
2023/06/04 09:42:54;;;;;;;56.55;53.45;;;21.70;95.30;;;;;;4968617;28;20082;-74
2023/06/04 09:45:31;;;;;;;59.22;55.75;;;21.60;95.90;;;;;;4964941;28;20201;-74
2023/06/04 09:47:59;;;;;;;56.72;53.53;;;21.40;96.30;;;;;;4969227;28;20519;-74
2023/06/04 09:50:31;;;;;;;56.28;53.28;;;21.40;97.50;;;;;;4963196;28;20035;-72
2023/06/04 09:52:58;;;;;;;54.95;52.05;;;21.30;98.70;;;;;;4964904;28;20046;-74
2023/06/04 09:55:25;;;;;;;55.22;52.40;;;21.00;98.40;;;;;;4971717;28;20406;-73
2023/06/04 09:57:53;;;;;;;54.80;51.88;;;20.50;99.00;;;;;;4971683;28;20055;-72
2023/06/04 10:00:22;;;;;;;57.85;54.85;;;20.90;97.40;;;;;;4971087;28;20252;-73
2023/06/04 10:02:55;;;;;;;54.22;51.10;;;21.70;98.00;;;;;;4970071;28;20046;-74
2023/06/04 10:05:25;;;;;;;55.35;52.42;;;22.60;97.40;;;;;;4972072;28;20112;-73
2023/06/04 10:07:54;;;;;;;53.92;51.13;;;22.60;96.20;;;;;;4962470;28;20425;-73
2023/06/04 10:10:26;;;;;;;57.85;54.67;;;22.30;97.50;;;;;;4966340;28;20042;-74
2023/06/04 10:13:02;;;;;;;56.78;53.88;;;21.50;97.10;;;;;;4986330;28;20145;-73
2023/06/04 10:15:29;;;;;;;58.25;55.03;;;21.00;97.30;;;;;;4962604;28;20152;-74
2023/06/04 10:17:56;;;;;;;55.85;52.83;;;20.80;96.80;;;;;;4964737;28;20548;-74
2023/06/04 10:20:23;;;;;;;55.22;51.83;;;21.10;98.60;;;;;;4963676;28;20401;-74
2023/06/04 10:22:50;;;;;;;51.38;48.67;;;21.70;98.40;;;;;;4964845;28;20078;-74
2023/06/04 10:25:19;;;;;;;52.00;49.33;;;21.50;98.60;;;;;;4968494;28;20046;-75
2023/06/04 10:27:46;;;;;;;52.88;50.17;;;21.70;97.80;;;;;;4963198;28;20042;-74
2023/06/04 10:30:13;;;;;;;53.83;50.83;;;21.80;97.20;;;;;;4961587;28;20584;-74
2023/06/04 10:32:40;;;;;;;56.65;53.72;;;22.00;97.00;;;;;;4969539;28;20112;-74
2023/06/04 10:35:08;;;;;;;56.95;53.92;;;22.10;97.70;;;;;;4971258;28;20046;-75
2023/06/04 10:37:35;;;;;;;57.05;54.25;;;21.10;97.40;;;;;;4972397;28;20357;-75
2023/06/04 10:40:04;;;;;;;57.78;54.67;;;21.40;96.50;;;;;;4963521;28;20205;-74
2023/06/04 10:42:39;;;;;;;55.03;52.00;;;21.60;99.30;;;;;;4967647;28;20050;-73
2023/06/04 10:45:09;;;;;;;59.25;56.25;;;22.00;98.90;;;;;;4963742;28;20059;-73
2023/06/04 10:47:40;;;;;;;57.60;54.42;;;21.80;97.40;;;;;;4967903;28;20161;-73
2023/06/04 10:50:12;;;;;;;56.05;53.10;;;21.40;99.90;;;;;;4962381;28;20401;-75
2023/06/04 10:52:51;;;;;;;57.55;54.67;;;22.20;98.40;;;;;;4961024;28;20576;-75
2023/06/04 10:55:18;;;;;;;52.22;49.53;;;23.20;98.30;;;;;;4963937;28;20107;-75
2023/06/04 10:57:55;;;;;;;60.55;57.40;;;23.70;96.90;;;;;;4964873;28;20066;-73
2023/06/04 11:00:34;;;;;;;57.22;54.08;;;24.10;97.40;;;;;;4965298;28;20654;-73
2023/06/04 11:03:01;;;;;;;59.78;56.83;;;24.40;96.40;;;;;;4964925;28;20046;-73
2023/06/04 11:05:42;;;;;;;59.08;56.17;;;24.50;95.30;;;;;;4963310;28;20046;-74
2023/06/04 11:08:11;;;;;;;58.90;55.88;;;24.20;98.30;;;;;;4969439;28;20632;-73
2023/06/04 11:10:41;;;;;;;62.08;58.95;;;22.40;95.90;;;;;;4966829;28;20042;-74
2023/06/04 11:13:08;;;;;;;62.30;59.10;;;21.40;96.10;;;;;;4971710;28;20050;-73
2023/06/04 11:15:41;;;;;;;61.15;58.15;;;21.90;98.00;;;;;;4964662;28;20043;-72
2023/06/04 11:18:20;;;;;;;60.30;57.30;;;21.50;96.90;;;;;;4967164;28;20269;-73
2023/06/04 11:20:59;;;;;;;61.38;58.25;;;21.20;98.10;;;;;;4962248;28;20054;-73
2023/06/04 11:23:26;;;;;;;56.47;53.63;;;22.00;97.50;;;;;;4964966;28;20085;-73
2023/06/04 11:25:53;;;;;;;59.42;56.28;;;22.90;98.10;;;;;;4966792;28;20806;-74
2023/06/04 11:28:23;;;;;;;60.63;57.38;;;22.30;96.80;;;;;;4965999;28;20043;-74
2023/06/04 11:31:03;;;;;;;59.83;56.63;;;21.70;96.80;;;;;;4961460;28;20039;-75
2023/06/04 11:33:30;;;;;;;59.65;56.65;;;22.30;97.30;;;;;;4980071;28;20181;-74
2023/06/04 11:35:57;;;;;;;62.10;58.90;;;22.00;96.00;;;;;;4944272;28;20125;-74
2023/06/04 11:38:24;;;;;;;59.35;56.33;;;21.60;96.10;;;;;;4971753;28;20082;-74
2023/06/04 11:41:02;;;;;;;65.32;61.97;;;21.00;97.40;;;;;;4965272;28;20077;-75
2023/06/04 11:43:29;;;;;;;63.58;60.40;;;21.40;95.60;;;;;;4976521;28;20043;-74
2023/06/04 11:45:56;;;;;;;68.68;65.25;;;22.00;96.90;;;;;;4971778;28;20054;-74
2023/06/04 11:48:24;;;;;;;67.53;63.95;;;22.00;96.30;;;;;;4969176;28;20039;-75
2023/06/04 11:50:51;;;;;;;69.13;65.53;;;21.90;96.30;;;;;;4967341;28;20532;-74
2023/06/04 11:53:18;;;;;;;68.22;64.57;;;21.40;97.20;;;;;;4967184;28;20158;-74
2023/06/04 11:55:45;;;;;;;64.25;60.85;;;21.50;96.40;;;;;;4967811;28;20042;-74
2023/06/04 11:58:12;;;;;;;63.30;60.00;;;22.20;96.30;;;;;;4960641;28;20483;-74
2023/06/04 12:00:40;;;;;;;63.65;60.53;;;22.80;95.90;;;;;;4964283;28;20461;-74
2023/06/04 12:03:07;;;;;;;66.32;62.92;;;23.20;97.20;;;;;;4970544;28;20389;-74
2023/06/04 12:05:34;;;;;;;66.22;62.83;;;23.40;95.00;;;;;;4965453;28;20123;-75
2023/06/04 12:08:09;;;;;;;65.00;61.50;;;23.20;95.00;;;;;;4964161;28;20570;-75
2023/06/04 12:10:41;;;;;;;66.72;63.20;;;22.30;96.50;;;;;;4963392;28;20046;-75
2023/06/04 12:13:09;;;;;;;66.65;63.08;;;22.00;97.30;;;;;;4977469;28;20041;-75
2023/06/04 12:15:36;;;;;;;63.50;60.17;;;21.70;96.60;;;;;;4964818;28;20074;-75
2023/06/04 12:18:06;;;;;;;66.35;62.95;;;21.90;94.60;;;;;;4968381;28;20058;-73
2023/06/04 12:20:38;;;;;;;66.00;62.80;;;21.60;97.70;;;;;;4963519;28;20592;-73
2023/06/04 12:23:06;;;;;;;67.03;63.70;;;22.00;96.30;;;;;;4973866;28;20167;-73
2023/06/04 12:25:34;;;;;;;70.45;66.78;;;22.00;96.50;;;;;;4971265;28;20046;-73
2023/06/04 12:28:02;;;;;;;70.25;66.60;;;21.50;96.30;;;;;;4970992;28;20528;-73
2023/06/04 12:30:40;;;;;;;66.93;63.55;;;21.70;96.00;;;;;;4970539;28;20049;-74
2023/06/04 12:33:07;;;;;;;66.25;62.78;;;22.40;96.80;;;;;;4970985;28;20066;-74
2023/06/04 12:35:35;;;;;;;65.45;62.10;;;22.40;97.60;;;;;;4967807;28;20573;-74
2023/06/04 12:38:08;;;;;;;64.85;61.55;;;22.90;94.70;;;;;;4970898;28;20066;-73